Time;durP1;ratioP1;P1;durP2;ratioP2;P2;SDS_P1;SDS_P2;PMS_P1;PMS_P2;Temp;Humidity;BMP_temperature;BMP_pressure;BME280_temperature;BME280_humidity;BME280_pressure;Samples;Min_cycle;Max_cycle;Signal;HPM_P1;HPM_P2
2021/12/31 00:01:08;;;;;;;14.93;2.70;;;12.50;99.90;;;;;;6243078;23;20426;-86
2021/12/31 00:03:34;;;;;;;22.20;3.95;;;12.00;99.90;;;;;;6218947;23;20023;-86
2021/12/31 00:05:59;;;;;;;24.08;4.00;;;12.70;99.90;;;;;;6218375;23;20020;-86
2021/12/31 00:08:25;;;;;;;23.02;3.83;;;12.00;99.90;;;;;;6244410;22;20016;-86
2021/12/31 00:10:56;;;;;;;24.33;4.40;;;12.50;99.90;;;;;;6217307;23;20016;-87
2021/12/31 00:13:22;;;;;;;17.30;3.28;;;12.00;99.90;;;;;;6193877;23;20318;-87
2021/12/31 00:15:48;;;;;;;23.10;3.63;;;11.90;99.90;;;;;;6218193;23;20143;-86
2021/12/31 00:18:14;;;;;;;23.42;4.20;;;12.40;99.90;;;;;;6218195;23;20016;-87
2021/12/31 00:20:40;;;;;;;22.25;3.67;;;11.90;99.90;;;;;;6245718;23;20368;-86
2021/12/31 00:23:11;;;;;;;23.30;4.15;;;12.20;99.90;;;;;;6193902;23;20039;-88
2021/12/31 00:25:40;;;;;;;19.92;3.38;;;12.40;99.90;;;;;;6245765;23;20332;-87
2021/12/31 00:28:07;;;;;;;28.10;4.00;;;11.90;99.90;;;;;;6193495;23;20087;-87
2021/12/31 00:30:34;;;;;;;22.90;4.25;;;11.80;99.90;;;;;;6193475;23;20020;-87
2021/12/31 00:33:01;;;;;;;22.20;3.50;;;12.00;99.90;;;;;;6216796;23;20677;-88
2021/12/31 00:35:28;;;;;;;20.88;3.75;;;11.80;99.90;;;;;;6218739;23;20082;-86
2021/12/31 00:37:54;;;;;;;25.25;3.78;;;11.80;99.90;;;;;;6193501;23;20008;-87
2021/12/31 00:40:20;;;;;;;22.00;3.70;;;12.30;99.90;;;;;;6217951;23;20012;-86
2021/12/31 00:42:46;;;;;;;28.58;4.22;;;11.80;99.90;;;;;;6192108;23;20027;-87
2021/12/31 00:45:14;;;;;;;28.02;4.25;;;11.90;99.90;;;;;;6217421;23;20020;-89
2021/12/31 00:47:40;;;;;;;25.02;3.88;;;11.70;99.90;;;;;;6192022;23;20437;-87
2021/12/31 00:50:10;;;;;;;29.10;4.32;;;11.70;99.90;;;;;;6217976;23;20062;-88
2021/12/31 00:52:36;;;;;;;27.52;4.60;;;11.70;99.90;;;;;;6218499;23;20141;-86
2021/12/31 00:55:04;;;;;;;26.55;3.83;;;11.70;99.90;;;;;;6217800;23;20016;-89
2021/12/31 00:57:29;;;;;;;24.08;3.67;;;11.70;99.90;;;;;;6193530;23;20087;-87
2021/12/31 00:59:55;;;;;;;26.83;4.43;;;11.70;99.90;;;;;;6218372;23;20047;-87
2021/12/31 01:02:23;;;;;;;26.38;3.78;;;12.10;99.90;;;;;;6216834;23;20016;-86
2021/12/31 01:04:49;;;;;;;27.35;4.13;;;11.80;99.90;;;;;;6245065;23;20015;-85
2021/12/31 01:07:14;;;;;;;29.70;3.47;;;11.90;99.90;;;;;;6217762;23;20012;-88
2021/12/31 01:09:40;;;;;;;28.33;4.13;;;11.70;99.90;;;;;;6206382;23;20090;-88
2021/12/31 01:12:10;;;;;;;26.30;4.13;;;11.60;99.90;;;;;;6218169;23;20054;-85
2021/12/31 01:14:54;;;;;;;29.77;4.18;;;11.60;99.90;;;;;;6218167;23;20529;-88
2021/12/31 01:17:35;;;;;;;21.57;3.30;;;11.90;99.90;;;;;;6217590;23;20016;-86
2021/12/31 01:20:02;;;;;;;22.77;4.03;;;12.50;99.90;;;;;;6217927;23;20268;-87
2021/12/31 01:22:31;;;;;;;23.50;3.97;;;11.90;99.90;;;;;;6243254;23;20019;-86
2021/12/31 01:24:57;;;;;;;26.25;3.92;;;11.70;99.90;;;;;;6242503;23;20427;-86
2021/12/31 01:27:23;;;;;;;24.63;3.88;;;12.40;99.90;;;;;;6243932;23;20016;-86
2021/12/31 01:29:49;;;;;;;24.15;3.70;;;12.20;99.90;;;;;;6243675;23;20023;-86
2021/12/31 01:32:14;;;;;;;23.05;4.50;;;11.80;99.90;;;;;;6242789;23;20167;-86
2021/12/31 01:34:40;;;;;;;26.40;4.10;;;12.00;99.90;;;;;;6243785;23;20030;-87
2021/12/31 01:37:07;;;;;;;26.48;4.20;;;11.80;99.90;;;;;;6218180;23;20407;-88
2021/12/31 01:39:35;;;;;;;27.08;3.90;;;11.80;99.90;;;;;;6217924;23;20047;-88
2021/12/31 01:42:02;;;;;;;28.60;4.60;;;11.80;99.90;;;;;;6217780;23;20111;-86
2021/12/31 01:44:39;;;;;;;23.80;3.63;;;11.80;99.90;;;;;;6218206;23;20116;-85
2021/12/31 01:47:11;;;;;;;25.58;4.15;;;12.70;99.90;;;;;;6215928;23;20020;-88
2021/12/31 01:49:40;;;;;;;24.23;3.95;;;11.90;99.90;;;;;;6217203;23;20089;-87
2021/12/31 01:52:08;;;;;;;27.58;3.75;;;11.80;99.90;;;;;;6242472;23;20400;-86
2021/12/31 01:54:35;;;;;;;18.33;3.25;;;11.90;99.90;;;;;;6244594;23;20012;-88
2021/12/31 01:57:04;;;;;;;19.13;3.15;;;12.10;99.90;;;;;;6241576;23;20015;-87
2021/12/31 01:59:30;;;;;;;25.85;4.15;;;12.00;99.90;;;;;;6217760;23;20527;-85
2021/12/31 02:01:57;;;;;;;21.98;3.92;;;12.20;99.90;;;;;;6216833;23;20074;-86
2021/12/31 02:04:23;;;;;;;23.30;4.10;;;12.00;99.90;;;;;;6243091;23;20020;-86
2021/12/31 02:06:49;;;;;;;23.55;3.72;;;12.40;99.90;;;;;;6242861;23;20165;-86
2021/12/31 02:09:15;;;;;;;21.50;3.20;;;11.90;99.90;;;;;;6241983;23;20071;-85
2021/12/31 02:11:41;;;;;;;22.30;3.53;;;12.00;99.90;;;;;;6217427;23;20105;-86
2021/12/31 02:14:07;;;;;;;23.80;3.58;;;12.10;99.90;;;;;;6217664;23;20012;-88
2021/12/31 02:16:33;;;;;;;26.02;4.05;;;12.10;99.90;;;;;;6217027;23;20444;-87
2021/12/31 02:19:11;;;;;;;20.70;4.05;;;11.90;99.90;;;;;;6217610;23;20047;-86
2021/12/31 02:21:37;;;;;;;13.85;3.08;;;12.50;99.90;;;;;;6217345;23;20043;-88
2021/12/31 02:24:06;;;;;;;17.20;3.60;;;11.90;99.90;;;;;;6242305;23;20020;-87
2021/12/31 02:26:32;;;;;;;22.02;3.92;;;12.00;99.90;;;;;;6216861;23;20024;-86
2021/12/31 02:28:57;;;;;;;16.92;3.38;;;12.00;99.90;;;;;;6216598;23;20016;-88
2021/12/31 02:31:23;;;;;;;23.75;4.15;;;12.10;99.90;;;;;;6241413;23;20043;-87
2021/12/31 02:33:50;;;;;;;20.95;3.80;;;12.20;99.90;;;;;;6242260;23;20088;-86
2021/12/31 02:36:16;;;;;;;24.50;4.30;;;12.00;99.90;;;;;;6217152;23;20491;-88
2021/12/31 02:38:43;;;;;;;24.77;3.97;;;12.00;99.90;;;;;;6217944;23;20031;-89
2021/12/31 02:41:10;;;;;;;25.40;3.75;;;12.20;99.90;;;;;;6216974;23;20447;-86
2021/12/31 02:43:36;;;;;;;17.30;3.53;;;12.00;99.90;;;;;;6242405;23;20062;-88
2021/12/31 02:46:03;;;;;;;17.23;3.20;;;12.10;99.90;;;;;;6216502;23;20447;-87
2021/12/31 02:48:29;;;;;;;20.23;4.10;;;12.20;99.90;;;;;;6242559;23;20020;-88
2021/12/31 02:50:57;;;;;;;19.95;3.25;;;12.10;99.90;;;;;;6241877;23;20012;-87
2021/12/31 02:53:36;;;;;;;18.77;3.63;;;12.70;99.90;;;;;;6242704;23;20078;-87
2021/12/31 02:56:05;;;;;;;15.05;3.38;;;12.10;99.90;;;;;;6217233;23;20831;-87
2021/12/31 02:58:33;;;;;;;20.70;3.17;;;12.10;99.90;;;;;;6217494;23;20405;-86
2021/12/31 03:00:59;;;;;;;14.60;3.28;;;12.20;99.90;;;;;;6241314;23;20301;-89
2021/12/31 03:03:25;;;;;;;20.08;3.42;;;12.20;99.90;;;;;;6216150;23;20099;-89
2021/12/31 03:05:53;;;;;;;12.38;2.88;;;12.10;99.90;;;;;;6216055;23;20016;-86
2021/12/31 03:08:27;;;;;;;18.73;3.42;;;12.20;99.90;;;;;;6241073;22;20018;-86
2021/12/31 03:10:55;;;;;;;17.80;3.63;;;12.20;99.90;;;;;;6217473;23;20020;-86
2021/12/31 03:13:23;;;;;;;16.58;3.08;;;12.20;99.90;;;;;;6192207;23;20008;-89
2021/12/31 03:15:50;;;;;;;12.90;3.10;;;12.20;99.90;;;;;;6242759;23;20087;-88
2021/12/31 03:18:18;;;;;;;24.88;3.60;;;12.30;99.90;;;;;;6216456;23;20093;-87
2021/12/31 03:20:57;;;;;;;17.48;3.58;;;12.20;99.90;;;;;;6218819;23;20013;-87
2021/12/31 03:23:24;;;;;;;14.55;2.92;;;12.90;99.90;;;;;;6193112;23;20423;-87
2021/12/31 03:25:49;;;;;;;18.42;3.15;;;12.30;99.90;;;;;;6217190;23;20008;-87
2021/12/31 03:28:15;;;;;;;14.75;3.25;;;12.30;99.90;;;;;;6192500;23;20010;-89
2021/12/31 03:30:41;;;;;;;17.20;3.38;;;12.30;99.90;;;;;;6191650;23;20020;-87
2021/12/31 03:33:06;;;;;;;19.50;3.47;;;12.20;99.90;;;;;;6191853;23;20409;-87
2021/12/31 03:35:32;;;;;;;13.93;3.00;;;12.40;99.90;;;;;;6191245;23;20055;-89
2021/12/31 03:37:58;;;;;;;15.57;3.63;;;12.30;99.90;;;;;;6193227;23;20020;-86
2021/12/31 03:40:23;;;;;;;21.67;3.92;;;13.10;99.90;;;;;;6198021;23;20023;-88
2021/12/31 03:42:49;;;;;;;14.60;2.58;;;12.40;99.90;;;;;;6216667;23;20008;-88
2021/12/31 03:45:15;;;;;;;13.57;3.50;;;12.50;99.90;;;;;;6191853;23;20016;-85
2021/12/31 03:47:41;;;;;;;15.10;2.97;;;12.50;99.90;;;;;;6191056;23;20407;-87
2021/12/31 03:50:06;;;;;;;14.85;2.95;;;12.20;99.90;;;;;;6217146;23;20099;-89
2021/12/31 03:52:37;;;;;;;16.67;3.53;;;12.30;99.90;;;;;;6191474;23;20103;-86
2021/12/31 03:55:04;;;;;;;14.25;2.95;;;12.20;99.90;;;;;;6191930;23;20016;-89
2021/12/31 03:57:29;;;;;;;13.38;2.92;;;12.20;99.90;;;;;;6216730;23;20301;-87
2021/12/31 03:59:55;;;;;;;14.95;3.28;;;12.20;99.90;;;;;;6243458;23;20023;-88
2021/12/31 04:02:20;;;;;;;14.13;2.45;;;12.90;99.90;;;;;;6243026;23;20016;-87
2021/12/31 04:04:46;;;;;;;12.68;2.72;;;12.40;99.90;;;;;;6191788;23;20096;-88
2021/12/31 04:07:12;;;;;;;11.40;2.40;;;12.30;99.90;;;;;;6191845;23;20066;-90
2021/12/31 04:09:37;;;;;;;11.43;2.83;;;12.30;99.90;;;;;;6229977;23;20020;-90
2021/12/31 04:12:04;;;;;;;17.02;3.00;;;12.20;99.90;;;;;;6218702;23;20012;-87
2021/12/31 04:14:29;;;;;;;18.67;2.75;;;12.30;99.90;;;;;;6220084;23;20053;-89
2021/12/31 04:16:55;;;;;;;11.27;2.30;;;12.30;99.90;;;;;;6214628;23;20130;-87
2021/12/31 04:19:21;;;;;;;16.60;3.13;;;12.30;99.90;;;;;;6214963;23;20012;-89
2021/12/31 04:21:49;;;;;;;12.98;2.75;;;12.60;99.90;;;;;;6239501;23;20309;-86
2021/12/31 04:24:26;;;;;;;12.85;2.78;;;12.30;99.90;;;;;;6217257;23;20016;-91
2021/12/31 04:26:52;;;;;;;15.90;3.08;;;13.10;99.90;;;;;;6215730;23;20031;-89
2021/12/31 04:29:18;;;;;;;13.48;2.50;;;12.40;99.90;;;;;;6217354;23;20087;-89
2021/12/31 04:31:43;;;;;;;10.95;2.78;;;12.50;99.90;;;;;;6241259;23;20450;-90
2021/12/31 04:34:09;;;;;;;13.15;2.88;;;12.40;99.90;;;;;;6242516;23;20432;-87
2021/12/31 04:36:35;;;;;;;17.92;3.45;;;12.40;99.90;;;;;;6243184;23;20013;-90
2021/12/31 04:39:00;;;;;;;12.93;2.72;;;13.20;99.90;;;;;;6219761;23;20019;-88
2021/12/31 04:41:26;;;;;;;13.45;2.95;;;12.40;99.90;;;;;;6218117;23;20018;-88
2021/12/31 04:43:52;;;;;;;10.43;2.70;;;13.00;99.90;;;;;;6243587;23;20016;-90
2021/12/31 04:46:17;;;;;;;12.63;2.80;;;12.50;99.90;;;;;;6218121;23;20312;-87
2021/12/31 04:48:43;;;;;;;15.07;2.83;;;12.50;99.90;;;;;;6246559;22;20028;-88
2021/12/31 04:51:09;;;;;;;15.20;2.63;;;12.50;99.90;;;;;;6220897;23;20057;-86
2021/12/31 04:53:34;;;;;;;10.75;2.67;;;12.70;99.90;;;;;;6218586;23;20047;-85
2021/12/31 04:56:00;;;;;;;12.55;2.97;;;12.60;99.90;;;;;;6243475;23;20437;-87
2021/12/31 04:58:26;;;;;;;10.02;2.70;;;12.80;99.90;;;;;;6218725;23;20037;-85
2021/12/31 05:00:52;;;;;;;11.82;2.50;;;12.50;99.90;;;;;;6217437;23;20016;-88
2021/12/31 05:03:18;;;;;;;15.35;2.90;;;12.50;99.90;;;;;;6217882;23;20008;-88
2021/12/31 05:05:43;;;;;;;10.63;2.47;;;12.60;99.90;;;;;;6218235;23;20099;-86
2021/12/31 05:08:09;;;;;;;11.30;2.63;;;12.60;99.90;;;;;;6218755;23;20012;-86
2021/12/31 05:10:35;;;;;;;10.70;2.40;;;12.60;99.90;;;;;;6218151;23;20051;-85
2021/12/31 05:13:03;;;;;;;7.80;2.30;;;12.50;99.90;;;;;;6243986;23;20048;-85
2021/12/31 05:15:34;;;;;;;9.43;2.20;;;12.50;99.90;;;;;;6218209;23;20023;-85
2021/12/31 05:18:00;;;;;;;9.07;2.30;;;12.40;99.90;;;;;;6242899;23;20009;-85
2021/12/31 05:20:26;;;;;;;13.50;2.60;;;12.50;99.90;;;;;;6243464;23;20012;-85
2021/12/31 05:22:53;;;;;;;9.77;2.45;;;12.40;99.90;;;;;;6242886;23;20024;-85
2021/12/31 05:25:21;;;;;;;10.75;2.38;;;12.40;99.90;;;;;;6217706;23;20016;-85
2021/12/31 05:27:47;;;;;;;13.07;2.80;;;12.40;99.90;;;;;;6217004;23;20343;-85
2021/12/31 05:30:12;;;;;;;7.82;2.20;;;12.40;99.90;;;;;;6243433;23;20056;-85
2021/12/31 05:32:38;;;;;;;13.48;2.33;;;12.40;99.90;;;;;;6216320;23;20008;-85
2021/12/31 05:35:04;;;;;;;8.57;2.60;;;12.30;99.90;;;;;;6217989;23;20047;-84
2021/12/31 05:37:30;;;;;;;6.40;2.40;;;12.20;99.90;;;;;;6242341;23;20034;-85
2021/12/31 05:39:56;;;;;;;10.30;2.70;;;12.20;99.90;;;;;;6217353;23;20019;-85
2021/12/31 05:42:21;;;;;;;10.38;2.60;;;12.30;99.90;;;;;;6244380;22;20015;-85
2021/12/31 05:44:48;;;;;;;9.15;2.72;;;12.60;99.90;;;;;;6242701;23;20026;-85
2021/12/31 05:47:14;;;;;;;8.73;2.40;;;12.20;99.90;;;;;;6242220;23;20012;-85
2021/12/31 05:49:40;;;;;;;7.13;2.58;;;12.20;99.90;;;;;;6217883;23;20477;-85
2021/12/31 05:52:06;;;;;;;7.72;2.35;;;12.70;99.90;;;;;;6243081;23;20041;-85
2021/12/31 05:54:32;;;;;;;15.65;3.20;;;12.30;99.90;;;;;;6217819;23;20012;-86
2021/12/31 05:56:57;;;;;;;8.60;2.88;;;12.30;99.90;;;;;;6242407;23;20012;-85
2021/12/31 05:59:24;;;;;;;6.57;2.40;;;12.30;99.90;;;;;;6244968;22;20098;-85
2021/12/31 06:01:50;;;;;;;7.38;2.28;;;12.40;99.90;;;;;;6216830;23;20428;-84
2021/12/31 06:04:16;;;;;;;7.72;2.50;;;13.00;99.90;;;;;;6242668;23;20094;-85
2021/12/31 06:06:43;;;;;;;6.95;2.42;;;12.40;99.90;;;;;;6217895;23;20608;-85
2021/12/31 06:09:09;;;;;;;7.20;2.35;;;12.40;99.90;;;;;;6242782;23;20066;-86
2021/12/31 06:11:34;;;;;;;7.13;2.38;;;12.60;99.90;;;;;;6243028;23;20012;-85
2021/12/31 06:14:03;;;;;;;8.52;2.60;;;12.50;99.90;;;;;;6217781;23;20383;-85
2021/12/31 06:16:30;;;;;;;8.65;2.67;;;12.60;99.90;;;;;;6217088;23;20042;-86
2021/12/31 06:18:56;;;;;;;5.63;2.38;;;12.40;99.90;;;;;;6242425;23;20436;-86
2021/12/31 06:21:22;;;;;;;8.27;2.50;;;12.50;99.90;;;;;;6244325;22;20042;-86
2021/12/31 06:23:47;;;;;;;4.20;2.10;;;12.50;99.90;;;;;;6242625;23;20018;-85
2021/12/31 06:26:14;;;;;;;9.77;2.30;;;12.40;99.90;;;;;;6242290;23;20087;-86
2021/12/31 06:28:39;;;;;;;7.50;2.30;;;13.20;99.90;;;;;;6243949;22;20012;-85
2021/12/31 06:31:05;;;;;;;6.90;2.65;;;12.60;99.90;;;;;;6241528;23;20035;-86
2021/12/31 06:33:31;;;;;;;8.70;2.42;;;12.50;99.90;;;;;;6217645;23;20340;-85
2021/12/31 06:35:56;;;;;;;10.23;2.50;;;12.50;99.90;;;;;;6216358;23;20293;-84
2021/12/31 06:42:40;;;;;;;13.93;2.80;;;12.50;99.90;;;;;;6241267;23;20099;-86
2021/12/31 06:45:26;;;;;;;7.10;2.38;;;12.60;99.90;;;;;;6229697;23;20052;-86
2021/12/31 06:47:53;;;;;;;7.32;2.78;;;12.50;99.90;;;;;;6214689;23;20082;-85
2021/12/31 06:50:19;;;;;;;6.70;2.13;;;12.40;99.90;;;;;;6240812;23;20077;-85
2021/12/31 06:52:46;;;;;;;6.63;2.30;;;12.80;99.90;;;;;;6215247;23;20016;-86
2021/12/31 06:55:12;;;;;;;6.88;2.45;;;13.00;99.90;;;;;;6215753;23;20012;-85
2021/12/31 06:57:46;;;;;;;7.70;2.40;;;12.40;99.90;;;;;;6216220;23;20024;-86
2021/12/31 07:00:47;;;;;;;7.05;2.47;;;12.40;99.90;;;;;;6216171;23;20012;-85
2021/12/31 07:17:10;;;;;;;6.82;2.30;;;12.50;99.90;;;;;;6180446;23;20064;-88
2021/12/31 07:19:45;;;;;;;8.02;2.60;;;12.40;99.90;;;;;;6139314;23;20529;-84
2021/12/31 07:22:11;;;;;;;6.38;2.17;;;12.40;99.90;;;;;;6100593;23;20021;-86
2021/12/31 07:24:44;;;;;;;7.28;2.47;;;12.40;99.90;;;;;;6125862;23;20087;-85
2021/12/31 07:27:33;;;;;;;10.18;2.58;;;13.10;99.90;;;;;;6100652;23;20040;-86
2021/12/31 07:30:02;;;;;;;9.00;2.55;;;12.40;99.90;;;;;;6100544;23;20025;-82
2021/12/31 07:32:28;;;;;;;5.47;2.10;;;12.30;99.90;;;;;;6122610;23;20104;-85
2021/12/31 07:34:53;;;;;;;6.32;2.70;;;12.30;99.90;;;;;;6124107;23;20048;-83
2021/12/31 07:37:21;;;;;;;7.93;2.60;;;12.30;99.90;;;;;;6099863;23;20069;-84
2021/12/31 07:39:48;;;;;;;5.25;2.15;;;12.20;99.90;;;;;;6125722;23;20013;-85
2021/12/31 07:42:30;;;;;;;7.07;2.30;;;12.30;99.90;;;;;;6100792;23;20037;-85
2021/12/31 07:46:28;;;;;;;10.15;2.20;;;11.80;99.90;;;;;;6111023;23;20092;-84
2021/12/31 07:48:56;;;;;;;7.13;2.22;;;12.10;99.90;;;;;;6065142;23;20066;-83
2021/12/31 07:56:24;;;;;;;;;;;;;;;;;;;;;
2021/12/31 07:59:13;;;;;;;8.57;2.67;;;12.30;99.90;;;;;;6009004;23;20053;-87
2021/12/31 08:01:48;;;;;;;10.73;2.63;;;11.90;99.90;;;;;;6009323;23;20094;-84
2021/12/31 08:12:18;;;;;;;9.40;2.50;;;12.40;99.90;;;;;;5894976;24;20033;-83
2021/12/31 08:14:50;;;;;;;7.38;2.10;;;12.40;99.90;;;;;;5852697;24;20020;-83
2021/12/31 08:17:26;;;;;;;8.68;2.38;;;12.20;99.90;;;;;;5896631;24;20021;-84
2021/12/31 08:20:02;;;;;;;5.90;2.00;;;12.20;99.90;;;;;;5897068;24;20097;-85
2021/12/31 08:22:38;;;;;;;6.70;2.20;;;12.20;99.90;;;;;;5895462;24;20630;-83
2021/12/31 08:25:36;;;;;;;4.97;1.92;;;12.20;99.90;;;;;;5896117;24;20012;-83
2021/12/31 08:54:31;;;;;;;7.07;2.17;;;12.30;99.90;;;;;;6240175;22;2358801;-82
2021/12/31 09:01:04;;;;;;;7.03;2.55;;;12.00;99.90;;;;;;6158170;23;20336;-87
2021/12/31 09:03:29;;;;;;;5.90;2.30;;;12.60;99.90;;;;;;6134514;23;20088;-85
2021/12/31 09:09:56;;;;;;;7.88;2.40;;;12.30;99.90;;;;;;5958359;23;20020;-82
2021/12/31 09:12:22;;;;;;;11.23;2.25;;;12.40;99.90;;;;;;5957293;24;20028;-84
2021/12/31 09:15:29;;;;;;;6.55;2.72;;;12.30;99.90;;;;;;5936043;24;20164;-82
2021/12/31 09:26:01;;;;;;;6.60;2.67;;;12.00;99.90;;;;;;5900479;24;20032;-88
2021/12/31 09:28:27;;;;;;;8.98;2.80;;;12.00;99.90;;;;;;5877746;24;20009;-83
2021/12/31 09:31:08;;;;;;;8.35;2.80;;;12.30;99.90;;;;;;5876309;24;20020;-79
2021/12/31 09:37:00;;;;;;;8.98;2.72;;;12.40;99.90;;;;;;5899860;24;20608;-84
2021/12/31 09:39:26;;;;;;;9.07;2.85;;;12.40;99.90;;;;;;5900334;24;20059;-84
2021/12/31 09:42:00;;;;;;;4.95;2.30;;;12.60;99.90;;;;;;5877602;24;20021;-86
2021/12/31 09:44:29;;;;;;;6.78;2.80;;;12.90;99.90;;;;;;5901163;24;20005;-85
2021/12/31 09:46:54;;;;;;;10.13;2.40;;;12.40;99.90;;;;;;5961700;23;20547;-86
2021/12/31 09:49:28;;;;;;;8.80;2.90;;;13.10;99.90;;;;;;6007647;23;20047;-86
2021/12/31 09:55:57;;;;;;;6.78;2.58;;;12.30;99.90;;;;;;5977194;23;20397;-87
2021/12/31 09:58:52;;;;;;;9.25;2.83;;;12.20;99.90;;;;;;6080032;23;20013;-85
2021/12/31 10:01:18;;;;;;;9.23;2.90;;;12.20;99.90;;;;;;6125219;23;20014;-86
2021/12/31 10:12:25;;;;;;;17.02;8.48;;;12.00;99.90;;;;;;6177617;23;20025;-81
2021/12/31 10:14:57;;;;;;;11.75;3.38;;;11.90;99.90;;;;;;6156783;23;20432;-83
2021/12/31 10:17:37;;;;;;;18.27;10.95;;;11.90;99.90;;;;;;6156826;23;20019;-93
2021/12/31 10:24:18;;;;;;;14.35;8.20;;;11.80;99.90;;;;;;6037759;23;20067;-89
2021/12/31 10:27:25;;;;;;;15.02;7.30;;;11.90;99.90;;;;;;5962819;23;20020;-88
2021/12/31 10:30:00;;;;;;;13.82;4.20;;;11.40;99.90;;;;;;5954523;24;20019;-83
2021/12/31 10:32:41;;;;;;;10.32;3.33;;;11.80;99.90;;;;;;5954235;24;20088;-86
2021/12/31 10:35:08;;;;;;;12.10;3.22;;;12.00;99.90;;;;;;5954460;24;20023;-84
2021/12/31 10:38:26;;;;;;;7.85;2.70;;;11.80;99.90;;;;;;5929034;24;20119;-84
2021/12/31 10:41:05;;;;;;;12.68;3.30;;;11.80;99.90;;;;;;5932244;24;20016;-85
2021/12/31 10:44:13;;;;;;;8.55;2.65;;;11.70;99.90;;;;;;5951109;24;20094;-85
2021/12/31 10:47:32;;;;;;;12.95;3.17;;;11.40;99.90;;;;;;5979857;23;20064;-85
2021/12/31 10:50:06;;;;;;;10.13;2.90;;;11.80;99.90;;;;;;5931299;24;20020;-84
2021/12/31 10:55:44;;;;;;;9.13;3.17;;;11.60;99.90;;;;;;5926645;24;20056;-86
2021/12/31 10:58:24;;;;;;;8.93;3.67;;;11.70;99.90;;;;;;5987330;23;20023;-86
2021/12/31 11:00:53;;;;;;;9.00;3.58;;;11.70;99.90;;;;;;6009116;23;20031;-84
2021/12/31 11:03:19;;;;;;;9.02;3.50;;;11.70;99.90;;;;;;6025019;23;20025;-80
2021/12/31 11:06:25;;;;;;;10.73;3.53;;;11.70;99.90;;;;;;6095594;23;20014;-86
2021/12/31 11:09:35;;;;;;;11.10;3.72;;;11.70;99.90;;;;;;6072910;23;20057;-84
2021/12/31 11:12:46;;;;;;;10.75;3.83;;;11.00;99.90;;;;;;6033578;23;20023;-85
2021/12/31 11:15:50;;;;;;;18.20;3.60;;;11.50;99.90;;;;;;6035081;23;20020;-85
2021/12/31 11:18:18;;;;;;;13.23;3.50;;;11.40;99.90;;;;;;5950978;24;20017;-79
2021/12/31 11:20:47;;;;;;;9.95;3.55;;;11.80;99.90;;;;;;5926383;24;20481;-82
2021/12/31 11:23:22;;;;;;;16.27;4.53;;;11.70;99.90;;;;;;5926372;24;20481;-82
2021/12/31 11:26:07;;;;;;;14.88;4.10;;;11.70;99.90;;;;;;5903726;24;20016;-84
2021/12/31 11:28:39;;;;;;;13.75;4.13;;;11.70;99.90;;;;;;5926789;24;20108;-80
2021/12/31 11:31:17;;;;;;;10.75;4.13;;;11.60;99.90;;;;;;5925687;24;20446;-81
2021/12/31 11:33:58;;;;;;;12.32;3.78;;;11.60;99.90;;;;;;5927887;24;20020;-91
2021/12/31 11:36:40;;;;;;;8.60;3.60;;;12.10;99.90;;;;;;5930906;24;20024;-84
2021/12/31 11:39:15;;;;;;;13.68;4.20;;;12.30;99.90;;;;;;5931255;24;20022;-79
2021/12/31 11:41:41;;;;;;;12.70;4.30;;;11.70;99.90;;;;;;5977266;24;20028;-83
2021/12/31 11:44:13;;;;;;;11.30;4.28;;;12.20;99.90;;;;;;6005312;23;20015;-81
2021/12/31 11:46:41;;;;;;;15.02;4.28;;;12.20;99.90;;;;;;5985581;23;20038;-78
2021/12/31 11:49:21;;;;;;;13.13;4.75;;;11.60;99.90;;;;;;5986769;23;20035;-78
2021/12/31 11:52:09;;;;;;;12.18;3.80;;;11.50;99.90;;;;;;5986207;23;20019;-81
2021/12/31 11:54:37;;;;;;;8.60;3.80;;;11.50;99.90;;;;;;6108250;23;20018;-79
2021/12/31 11:57:10;;;;;;;12.93;4.47;;;11.60;99.90;;;;;;6071991;23;20060;-81
2021/12/31 12:00:33;;;;;;;11.32;4.38;;;11.50;99.90;;;;;;6096959;23;20014;-85
2021/12/31 12:03:43;;;;;;;11.45;4.30;;;11.50;99.90;;;;;;5944104;23;20082;-82
2021/12/31 12:07:01;;;;;;;12.05;4.07;;;11.50;99.90;;;;;;5924570;24;20072;-86
2021/12/31 12:09:36;;;;;;;14.75;4.25;;;11.40;99.90;;;;;;5903771;24;20012;-80
2021/12/31 12:12:35;;;;;;;10.70;4.00;;;11.50;99.90;;;;;;5921783;24;20330;-78
2021/12/31 12:15:47;;;;;;;9.45;3.63;;;11.50;99.90;;;;;;5876001;24;20207;-79
2021/12/31 12:18:56;;;;;;;8.32;3.70;;;11.50;99.90;;;;;;5875356;24;20144;-81
2021/12/31 12:21:55;;;;;;;14.05;4.65;;;11.70;99.90;;;;;;5898155;24;20036;-81
2021/12/31 12:24:24;;;;;;;10.77;4.20;;;11.40;99.90;;;;;;5814720;24;20050;-79
2021/12/31 12:27:00;;;;;;;8.43;3.78;;;11.40;99.90;;;;;;5814400;24;20452;-81
2021/12/31 12:29:26;;;;;;;9.18;3.83;;;11.40;99.90;;;;;;5790157;24;20026;-78
2021/12/31 12:32:11;;;;;;;7.97;3.72;;;11.40;99.90;;;;;;5790406;24;20662;-79
2021/12/31 12:34:37;;;;;;;10.27;3.75;;;11.40;99.90;;;;;;5790349;24;20026;-79
2021/12/31 12:37:03;;;;;;;9.60;3.53;;;11.50;99.90;;;;;;5797504;24;20022;-79
2021/12/31 12:39:30;;;;;;;8.82;3.58;;;11.50;99.90;;;;;;5887104;24;20468;-79
2021/12/31 12:41:56;;;;;;;9.05;3.42;;;11.50;99.90;;;;;;5952523;24;20024;-80
2021/12/31 12:44:36;;;;;;;6.20;3.40;;;11.50;99.90;;;;;;5953009;24;20059;-81
2021/12/31 12:47:37;;;;;;;7.13;3.72;;;11.30;99.90;;;;;;5950062;24;20587;-80
2021/12/31 12:50:42;;;;;;;5.85;3.47;;;11.40;99.90;;;;;;6010203;23;20026;-79
2021/12/31 12:53:31;;;;;;;10.20;3.80;;;11.40;99.90;;;;;;6059201;23;20121;-81
2021/12/31 12:56:21;;;;;;;6.35;3.40;;;11.40;99.90;;;;;;6037208;23;20018;-79
2021/12/31 12:59:21;;;;;;;7.53;3.40;;;11.40;99.90;;;;;;6039217;23;20419;-80
2021/12/31 13:02:06;;;;;;;6.07;3.28;;;11.30;99.90;;;;;;6105645;23;20434;-80
2021/12/31 13:04:44;;;;;;;5.45;3.38;;;11.40;99.90;;;;;;6101974;23;20088;-78
2021/12/31 13:07:12;;;;;;;6.63;3.60;;;11.30;99.90;;;;;;6123691;23;20017;-80
2021/12/31 13:10:01;;;;;;;6.43;3.42;;;11.30;99.90;;;;;;6124959;23;20060;-83
2021/12/31 13:12:27;;;;;;;7.90;3.28;;;11.30;99.90;;;;;;6005265;23;20019;-80
2021/12/31 13:18:56;;;;;;;6.50;3.33;;;11.30;99.90;;;;;;5841321;24;20466;-81
2021/12/31 13:26:24;;;;;;;;;;;;;;;;;;;;;
2021/12/31 13:30:02;;;;;;;5.30;2.92;;;10.90;99.90;;;;;;5812779;24;20168;-83
2021/12/31 13:36:47;;;;;;;7.93;3.17;;;11.50;99.90;;;;;;5740332;24;20445;-80
2021/12/31 13:39:26;;;;;;;7.45;3.35;;;11.30;99.90;;;;;;5719637;24;20015;-79
2021/12/31 13:45:58;;;;;;;10.23;3.22;;;11.00;99.90;;;;;;5735118;25;20430;-80
2021/12/31 14:00:22;;;;;;;16.33;3.85;;;11.30;99.90;;;;;;5842747;24;20431;-81
2021/12/31 14:06:18;;;;;;;22.17;5.03;;;11.10;99.90;;;;;;5867279;24;20477;-79
2021/12/31 14:08:44;;;;;;;18.13;4.82;;;11.30;99.90;;;;;;5887490;24;20009;-78
2021/12/31 14:11:10;;;;;;;24.23;5.07;;;11.30;99.90;;;;;;5949333;24;20017;-79
2021/12/31 14:13:39;;;;;;;29.88;7.28;;;11.30;99.90;;;;;;5927249;24;20120;-80
2021/12/31 14:16:08;;;;;;;33.13;9.98;;;11.50;99.90;;;;;;5949133;24;20081;-79
2021/12/31 14:18:34;;;;;;;35.55;12.10;;;11.40;99.90;;;;;;5948819;24;20055;-79
2021/12/31 14:21:11;;;;;;;34.38;8.35;;;11.30;99.90;;;;;;5925827;24;20480;-80
2021/12/31 14:23:37;;;;;;;36.85;8.60;;;11.20;99.90;;;;;;5976505;23;20022;-77
2021/12/31 14:26:02;;;;;;;94.40;41.92;;;11.20;99.90;;;;;;6004713;23;20454;-79
2021/12/31 14:28:28;;;;;;;32.00;12.98;;;11.30;99.90;;;;;;6042890;23;20022;-80
2021/12/31 14:30:54;;;;;;;29.20;8.35;;;11.30;99.90;;;;;;6064242;23;20403;-78
2021/12/31 14:33:19;;;;;;;33.92;9.98;;;11.40;99.90;;;;;;6063971;23;20038;-80
2021/12/31 14:35:48;;;;;;;32.72;13.18;;;11.40;99.90;;;;;;6064815;23;20058;-77
2021/12/31 14:38:21;;;;;;;44.63;14.75;;;11.40;99.90;;;;;;6064017;23;20113;-80
2021/12/31 14:41:21;;;;;;;64.90;25.83;;;11.30;99.90;;;;;;6089364;23;20085;-81
2021/12/31 14:44:11;;;;;;;32.03;9.50;;;11.40;99.90;;;;;;6087137;23;20021;-83
2021/12/31 14:46:37;;;;;;;37.70;18.10;;;11.40;99.90;;;;;;6087742;23;20010;-78
2021/12/31 14:49:05;;;;;;;36.15;10.18;;;11.40;99.90;;;;;;6087900;23;20021;-80
2021/12/31 14:51:31;;;;;;;110.80;61.45;;;11.40;99.90;;;;;;6063880;23;20015;-77
2021/12/31 14:54:01;;;;;;;28.27;9.50;;;11.30;99.90;;;;;;6088533;23;20018;-77
2021/12/31 14:56:29;;;;;;;27.50;11.35;;;11.40;99.90;;;;;;6064845;23;20127;-77
2021/12/31 14:58:54;;;;;;;31.33;8.32;;;11.50;99.90;;;;;;6089073;23;20057;-77
2021/12/31 15:01:21;;;;;;;28.10;10.13;;;11.50;99.90;;;;;;6087279;23;20014;-78
2021/12/31 15:03:51;;;;;;;40.08;14.52;;;11.50;99.90;;;;;;6040392;23;20022;-81
2021/12/31 15:06:30;;;;;;;31.60;11.80;;;11.40;99.90;;;;;;6125211;22;20027;-78
2021/12/31 15:09:21;;;;;;;34.70;10.77;;;11.40;99.90;;;;;;6214644;23;20384;-80
2021/12/31 15:15:09;;;;;;;36.65;10.23;;;11.50;99.90;;;;;;6116526;23;20152;-80
2021/12/31 15:17:35;;;;;;;42.30;20.90;;;11.40;99.90;;;;;;6067752;23;20026;-77
2021/12/31 15:20:06;;;;;;;42.58;14.10;;;12.00;99.90;;;;;;6094132;23;20029;-77